<?xml version="1.0"?>
<gpx
 version="1.0"
 creator="BadaTracker - http://www.badatracker.com"
 xmlns:xsi="http://www.w3.org/2001/XMLSchema-instance"
 xmlns="http://www.topografix.com/GPX/1/0"
 xsi:schemaLocation="http://www.topografix.com/GPX/1/0 http://www.topografix.com/GPX/1/0/gpx.xsd">
<time>2012-02-07T09:06:27Z</time>
<bounds minlat="36.493900" minlon="-4.946059" maxlat="36.503963" maxlon="-4.917128"/>
<wpt lat="36.503963" lon="-4.917127">
<time>2012-02-07T08:36:11Z</time>
<ele>62.000000</ele>
<name>KM 0.000 (START)</name>
<sym>STARTPOS</sym>
<desc>[Taken at 02/07/2012 09:36:11]
</desc>
</wpt>
<wpt lat="36.493902" lon="-4.946059">
<time>2012-02-07T09:06:27Z</time>
<ele>59.000000</ele>
<name>KM 3.082 (END)</name>
<sym>ENDPOS</sym>
<desc>[Taken at 02/07/2012 10:06:27]
</desc>
</wpt>
<trk>
<name>TRIP0007</name>
<trkseg>
<trkpt lat="36.503963" lon="-4.917127">
<time>2012-02-07T08:36:11Z</time>
<ele>62.000000</ele>
</trkpt>
<trkpt lat="36.503910" lon="-4.917273">
<time>2012-02-07T08:36:32Z</time>
<ele>52.000000</ele>
</trkpt>
<trkpt lat="36.503749" lon="-4.917536">
<time>2012-02-07T08:36:50Z</time>
<ele>49.000000</ele>
</trkpt>
<trkpt lat="36.503607" lon="-4.917833">
<time>2012-02-07T08:37:10Z</time>
<ele>52.000000</ele>
</trkpt>
<trkpt lat="36.503484" lon="-4.918163">
<time>2012-02-07T08:37:30Z</time>
<ele>48.000000</ele>
</trkpt>
<trkpt lat="36.503384" lon="-4.918521">
<time>2012-02-07T08:37:50Z</time>
<ele>48.000000</ele>
</trkpt>
<trkpt lat="36.503236" lon="-4.918868">
<time>2012-02-07T08:38:10Z</time>
<ele>49.000000</ele>
</trkpt>
<trkpt lat="36.503162" lon="-4.919226">
<time>2012-02-07T08:38:30Z</time>
<ele>48.000000</ele>
</trkpt>
<trkpt lat="36.503057" lon="-4.919558">
<time>2012-02-07T08:38:50Z</time>
<ele>50.000000</ele>
</trkpt>
<trkpt lat="36.502915" lon="-4.919880">
<time>2012-02-07T08:39:10Z</time>
<ele>51.000000</ele>
</trkpt>
<trkpt lat="36.502845" lon="-4.920186">
<time>2012-02-07T08:39:30Z</time>
<ele>49.000000</ele>
</trkpt>
<trkpt lat="36.502817" lon="-4.920571">
<time>2012-02-07T08:39:50Z</time>
<ele>49.000000</ele>
</trkpt>
<trkpt lat="36.502747" lon="-4.920963">
<time>2012-02-07T08:40:10Z</time>
<ele>46.000000</ele>
</trkpt>
<trkpt lat="36.502620" lon="-4.921349">
<time>2012-02-07T08:40:30Z</time>
<ele>51.000000</ele>
</trkpt>
<trkpt lat="36.502466" lon="-4.921661">
<time>2012-02-07T08:40:50Z</time>
<ele>51.000000</ele>
</trkpt>
<trkpt lat="36.502321" lon="-4.921958">
<time>2012-02-07T08:41:10Z</time>
<ele>50.000000</ele>
</trkpt>
<trkpt lat="36.502150" lon="-4.922256">
<time>2012-02-07T08:41:30Z</time>
<ele>49.000000</ele>
</trkpt>
<trkpt lat="36.501932" lon="-4.922575">
<time>2012-02-07T08:41:50Z</time>
<ele>52.000000</ele>
</trkpt>
<trkpt lat="36.501706" lon="-4.922831">
<time>2012-02-07T08:42:10Z</time>
<ele>50.000000</ele>
</trkpt>
<trkpt lat="36.501581" lon="-4.923155">
<time>2012-02-07T08:42:30Z</time>
<ele>50.000000</ele>
</trkpt>
<trkpt lat="36.501444" lon="-4.923461">
<time>2012-02-07T08:42:50Z</time>
<ele>49.000000</ele>
</trkpt>
<trkpt lat="36.501183" lon="-4.923695">
<time>2012-02-07T08:43:10Z</time>
<ele>51.000000</ele>
</trkpt>
<trkpt lat="36.501029" lon="-4.924008">
<time>2012-02-07T08:43:30Z</time>
<ele>50.000000</ele>
</trkpt>
<trkpt lat="36.500872" lon="-4.924344">
<time>2012-02-07T08:43:50Z</time>
<ele>49.000000</ele>
</trkpt>
<trkpt lat="36.500717" lon="-4.924674">
<time>2012-02-07T08:44:10Z</time>
<ele>50.000000</ele>
</trkpt>
<trkpt lat="36.500604" lon="-4.925028">
<time>2012-02-07T08:44:30Z</time>
<ele>47.000000</ele>
</trkpt>
<trkpt lat="36.500470" lon="-4.925359">
<time>2012-02-07T08:44:50Z</time>
<ele>46.000000</ele>
</trkpt>
<trkpt lat="36.500289" lon="-4.925694">
<time>2012-02-07T08:45:10Z</time>
<ele>47.000000</ele>
</trkpt>
<trkpt lat="36.500163" lon="-4.926030">
<time>2012-02-07T08:45:30Z</time>
<ele>48.000000</ele>
</trkpt>
<trkpt lat="36.500030" lon="-4.926412">
<time>2012-02-07T08:45:50Z</time>
<ele>47.000000</ele>
</trkpt>
<trkpt lat="36.499918" lon="-4.926752">
<time>2012-02-07T08:46:10Z</time>
<ele>49.000000</ele>
</trkpt>
<trkpt lat="36.499944" lon="-4.927129">
<time>2012-02-07T08:46:30Z</time>
<ele>50.000000</ele>
</trkpt>
<trkpt lat="36.499896" lon="-4.927497">
<time>2012-02-07T08:46:50Z</time>
<ele>50.000000</ele>
</trkpt>
<trkpt lat="36.499884" lon="-4.927879">
<time>2012-02-07T08:47:10Z</time>
<ele>49.000000</ele>
</trkpt>
<trkpt lat="36.499927" lon="-4.928262">
<time>2012-02-07T08:47:30Z</time>
<ele>48.000000</ele>
</trkpt>
<trkpt lat="36.500009" lon="-4.928649">
<time>2012-02-07T08:47:50Z</time>
<ele>46.000000</ele>
</trkpt>
<trkpt lat="36.500110" lon="-4.928976">
<time>2012-02-07T08:48:10Z</time>
<ele>44.000000</ele>
</trkpt>
<trkpt lat="36.500248" lon="-4.929307">
<time>2012-02-07T08:48:30Z</time>
<ele>47.000000</ele>
</trkpt>
<trkpt lat="36.500321" lon="-4.929678">
<time>2012-02-07T08:48:50Z</time>
<ele>49.000000</ele>
</trkpt>
<trkpt lat="36.500371" lon="-4.930056">
<time>2012-02-07T08:49:10Z</time>
<ele>49.000000</ele>
</trkpt>
<trkpt lat="36.500376" lon="-4.930434">
<time>2012-02-07T08:49:30Z</time>
<ele>51.000000</ele>
</trkpt>
<trkpt lat="36.500333" lon="-4.930832">
<time>2012-02-07T08:49:50Z</time>
<ele>52.000000</ele>
</trkpt>
<trkpt lat="36.500328" lon="-4.931195">
<time>2012-02-07T08:50:10Z</time>
<ele>52.000000</ele>
</trkpt>
<trkpt lat="36.500277" lon="-4.931555">
<time>2012-02-07T08:50:30Z</time>
<ele>55.000000</ele>
</trkpt>
<trkpt lat="36.500301" lon="-4.931929">
<time>2012-02-07T08:50:50Z</time>
<ele>54.000000</ele>
</trkpt>
<trkpt lat="36.500316" lon="-4.932341">
<time>2012-02-07T08:51:10Z</time>
<ele>53.000000</ele>
</trkpt>
<trkpt lat="36.500283" lon="-4.932658">
<time>2012-02-07T08:51:30Z</time>
<ele>51.000000</ele>
</trkpt>
<trkpt lat="36.500310" lon="-4.933028">
<time>2012-02-07T08:51:50Z</time>
<ele>46.000000</ele>
</trkpt>
<trkpt lat="36.500351" lon="-4.933369">
<time>2012-02-07T08:52:10Z</time>
<ele>51.000000</ele>
</trkpt>
<trkpt lat="36.500297" lon="-4.933736">
<time>2012-02-07T08:52:30Z</time>
<ele>53.000000</ele>
</trkpt>
<trkpt lat="36.500292" lon="-4.934076">
<time>2012-02-07T08:52:50Z</time>
<ele>53.000000</ele>
</trkpt>
<trkpt lat="36.500176" lon="-4.934456">
<time>2012-02-07T08:53:10Z</time>
<ele>55.000000</ele>
</trkpt>
<trkpt lat="36.500124" lon="-4.934806">
<time>2012-02-07T08:53:30Z</time>
<ele>54.000000</ele>
</trkpt>
<trkpt lat="36.500004" lon="-4.935191">
<time>2012-02-07T08:53:50Z</time>
<ele>52.000000</ele>
</trkpt>
<trkpt lat="36.499852" lon="-4.935507">
<time>2012-02-07T08:54:10Z</time>
<ele>53.000000</ele>
</trkpt>
<trkpt lat="36.499703" lon="-4.935854">
<time>2012-02-07T08:54:30Z</time>
<ele>54.000000</ele>
</trkpt>
<trkpt lat="36.499558" lon="-4.936202">
<time>2012-02-07T08:54:50Z</time>
<ele>54.000000</ele>
</trkpt>
<trkpt lat="36.499406" lon="-4.936545">
<time>2012-02-07T08:55:10Z</time>
<ele>54.000000</ele>
</trkpt>
<trkpt lat="36.499202" lon="-4.936850">
<time>2012-02-07T08:55:30Z</time>
<ele>54.000000</ele>
</trkpt>
<trkpt lat="36.499051" lon="-4.937159">
<time>2012-02-07T08:55:50Z</time>
<ele>55.000000</ele>
</trkpt>
<trkpt lat="36.498870" lon="-4.937486">
<time>2012-02-07T08:56:10Z</time>
<ele>55.000000</ele>
</trkpt>
<trkpt lat="36.498685" lon="-4.937803">
<time>2012-02-07T08:56:30Z</time>
<ele>54.000000</ele>
</trkpt>
<trkpt lat="36.498501" lon="-4.938096">
<time>2012-02-07T08:56:50Z</time>
<ele>54.000000</ele>
</trkpt>
<trkpt lat="36.498351" lon="-4.938409">
<time>2012-02-07T08:57:10Z</time>
<ele>52.000000</ele>
</trkpt>
<trkpt lat="36.498169" lon="-4.938738">
<time>2012-02-07T08:57:30Z</time>
<ele>55.000000</ele>
</trkpt>
<trkpt lat="36.498005" lon="-4.939066">
<time>2012-02-07T08:57:50Z</time>
<ele>53.000000</ele>
</trkpt>
<trkpt lat="36.497880" lon="-4.939381">
<time>2012-02-07T08:58:10Z</time>
<ele>56.000000</ele>
</trkpt>
<trkpt lat="36.497714" lon="-4.939700">
<time>2012-02-07T08:58:30Z</time>
<ele>55.000000</ele>
</trkpt>
<trkpt lat="36.497548" lon="-4.939997">
<time>2012-02-07T08:58:50Z</time>
<ele>58.000000</ele>
</trkpt>
<trkpt lat="36.497328" lon="-4.940281">
<time>2012-02-07T08:59:10Z</time>
<ele>56.000000</ele>
</trkpt>
<trkpt lat="36.497108" lon="-4.940544">
<time>2012-02-07T08:59:30Z</time>
<ele>52.000000</ele>
</trkpt>
<trkpt lat="36.496918" lon="-4.940854">
<time>2012-02-07T08:59:50Z</time>
<ele>53.000000</ele>
</trkpt>
<trkpt lat="36.496754" lon="-4.941101">
<time>2012-02-07T09:00:11Z</time>
<ele>50.000000</ele>
</trkpt>
<trkpt lat="36.496510" lon="-4.941330">
<time>2012-02-07T09:00:29Z</time>
<ele>50.000000</ele>
</trkpt>
<trkpt lat="36.496317" lon="-4.941595">
<time>2012-02-07T09:00:49Z</time>
<ele>49.000000</ele>
</trkpt>
<trkpt lat="36.496145" lon="-4.941762">
<time>2012-02-07T09:01:09Z</time>
<ele>45.000000</ele>
</trkpt>
<trkpt lat="36.496034" lon="-4.941953">
<time>2012-02-07T09:01:29Z</time>
<ele>46.000000</ele>
</trkpt>
<trkpt lat="36.495971" lon="-4.942209">
<time>2012-02-07T09:01:49Z</time>
<ele>52.000000</ele>
</trkpt>
<trkpt lat="36.495810" lon="-4.942425">
<time>2012-02-07T09:02:09Z</time>
<ele>52.000000</ele>
</trkpt>
<trkpt lat="36.495633" lon="-4.942740">
<time>2012-02-07T09:02:29Z</time>
<ele>49.000000</ele>
</trkpt>
<trkpt lat="36.495450" lon="-4.943065">
<time>2012-02-07T09:02:49Z</time>
<ele>51.000000</ele>
</trkpt>
<trkpt lat="36.495203" lon="-4.943338">
<time>2012-02-07T09:03:09Z</time>
<ele>49.000000</ele>
</trkpt>
<trkpt lat="36.495000" lon="-4.943548">
<time>2012-02-07T09:03:29Z</time>
<ele>50.000000</ele>
</trkpt>
<trkpt lat="36.494741" lon="-4.943777">
<time>2012-02-07T09:03:49Z</time>
<ele>48.000000</ele>
</trkpt>
<trkpt lat="36.494458" lon="-4.944061">
<time>2012-02-07T09:04:09Z</time>
<ele>49.000000</ele>
</trkpt>
<trkpt lat="36.494205" lon="-4.944266">
<time>2012-02-07T09:04:29Z</time>
<ele>53.000000</ele>
</trkpt>
<trkpt lat="36.494082" lon="-4.944567">
<time>2012-02-07T09:04:49Z</time>
<ele>57.000000</ele>
</trkpt>
<trkpt lat="36.494194" lon="-4.944889">
<time>2012-02-07T09:05:09Z</time>
<ele>54.000000</ele>
</trkpt>
<trkpt lat="36.494204" lon="-4.945095">
<time>2012-02-07T09:05:29Z</time>
<ele>53.000000</ele>
</trkpt>
<trkpt lat="36.494037" lon="-4.945434">
<time>2012-02-07T09:05:49Z</time>
<ele>54.000000</ele>
</trkpt>
<trkpt lat="36.493971" lon="-4.945763">
<time>2012-02-07T09:06:10Z</time>
<ele>56.000000</ele>
</trkpt>
<trkpt lat="36.493902" lon="-4.946059">
<time>2012-02-07T09:06:27Z</time>
<ele>59.000000</ele>
</trkpt>
</trkseg>
</trk>
</gpx>
